sensor_id;sensor_type;location;lat;lon;timestamp;temperature;humidity
30097;DHT22;16915;51.466;3.610;2024-01-06T00:01:24;7.00;99.90
30097;DHT22;16915;51.466;3.610;2024-01-06T00:03:50;7.00;99.90
30097;DHT22;16915;51.466;3.610;2024-01-06T00:06:16;6.90;99.90
30097;DHT22;16915;51.466;3.610;2024-01-06T00:08:41;6.90;99.90
30097;DHT22;16915;51.466;3.610;2024-01-06T00:11:07;7.00;99.90
30097;DHT22;16915;51.466;3.610;2024-01-06T00:13:32;7.00;99.90
30097;DHT22;16915;51.466;3.610;2024-01-06T00:15:58;6.90;99.90
30097;DHT22;16915;51.466;3.610;2024-01-06T00:18:24;6.90;99.90
30097;DHT22;16915;51.466;3.610;2024-01-06T00:20:49;6.90;99.90
30097;DHT22;16915;51.466;3.610;2024-01-06T00:23:15;6.90;99.90
30097;DHT22;16915;51.466;3.610;2024-01-06T00:25:41;6.90;99.90
30097;DHT22;16915;51.466;3.610;2024-01-06T00:28:06;6.90;99.90
30097;DHT22;16915;51.466;3.610;2024-01-06T00:30:32;6.90;99.90
30097;DHT22;16915;51.466;3.610;2024-01-06T00:32:57;7.00;99.90
30097;DHT22;16915;51.466;3.610;2024-01-06T00:35:23;6.90;99.90
30097;DHT22;16915;51.466;3.610;2024-01-06T00:37:48;7.00;99.90
30097;DHT22;16915;51.466;3.610;2024-01-06T00:40:14;6.90;99.90
30097;DHT22;16915;51.466;3.610;2024-01-06T00:42:40;6.90;99.90
30097;DHT22;16915;51.466;3.610;2024-01-06T00:45:05;6.90;99.90
30097;DHT22;16915;51.466;3.610;2024-01-06T00:47:31;6.90;99.90
30097;DHT22;16915;51.466;3.610;2024-01-06T00:49:57;6.90;99.90
30097;DHT22;16915;51.466;3.610;2024-01-06T00:52:22;6.80;99.90
30097;DHT22;16915;51.466;3.610;2024-01-06T00:54:48;6.90;99.90
30097;DHT22;16915;51.466;3.610;2024-01-06T00:57:13;6.90;99.90
30097;DHT22;16915;51.466;3.610;2024-01-06T00:59:39;6.80;99.90
30097;DHT22;16915;51.466;3.610;2024-01-06T01:02:04;6.90;99.90
30097;DHT22;16915;51.466;3.610;2024-01-06T01:04:30;6.80;99.90
30097;DHT22;16915;51.466;3.610;2024-01-06T01:06:56;6.90;99.90
30097;DHT22;16915;51.466;3.610;2024-01-06T01:09:21;6.80;99.90
30097;DHT22;16915;51.466;3.610;2024-01-06T01:11:47;6.80;99.90
30097;DHT22;16915;51.466;3.610;2024-01-06T01:14:12;6.90;99.90
30097;DHT22;16915;51.466;3.610;2024-01-06T01:16:38;6.90;99.90
30097;DHT22;16915;51.466;3.610;2024-01-06T01:19:03;6.90;99.90
30097;DHT22;16915;51.466;3.610;2024-01-06T01:21:29;6.90;99.90
30097;DHT22;16915;51.466;3.610;2024-01-06T01:23:54;6.90;99.90
30097;DHT22;16915;51.466;3.610;2024-01-06T01:26:20;6.90;99.90
30097;DHT22;16915;51.466;3.610;2024-01-06T01:28:46;6.80;99.90
30097;DHT22;16915;51.466;3.610;2024-01-06T01:31:12;6.80;99.90
30097;DHT22;16915;51.466;3.610;2024-01-06T01:33:38;6.80;99.90
30097;DHT22;16915;51.466;3.610;2024-01-06T01:36:04;6.80;99.90
30097;DHT22;16915;51.466;3.610;2024-01-06T01:38:30;6.80;99.90
30097;DHT22;16915;51.466;3.610;2024-01-06T01:40:55;6.80;99.90
30097;DHT22;16915;51.466;3.610;2024-01-06T01:43:21;6.80;99.90
30097;DHT22;16915;51.466;3.610;2024-01-06T01:45:52;6.80;99.90
30097;DHT22;16915;51.466;3.610;2024-01-06T01:48:19;6.70;99.90
30097;DHT22;16915;51.466;3.610;2024-01-06T01:50:46;6.70;99.90
30097;DHT22;16915;51.466;3.610;2024-01-06T01:53:13;6.70;99.90
30097;DHT22;16915;51.466;3.610;2024-01-06T01:55:40;6.70;99.90
30097;DHT22;16915;51.466;3.610;2024-01-06T01:58:08;6.80;99.90
30097;DHT22;16915;51.466;3.610;2024-01-06T02:00:34;6.70;99.90
30097;DHT22;16915;51.466;3.610;2024-01-06T02:03:01;6.70;99.90
30097;DHT22;16915;51.466;3.610;2024-01-06T02:05:28;6.70;99.90
30097;DHT22;16915;51.466;3.610;2024-01-06T02:07:53;6.70;99.90
30097;DHT22;16915;51.466;3.610;2024-01-06T02:10:19;6.60;99.90
30097;DHT22;16915;51.466;3.610;2024-01-06T02:12:45;6.60;99.90
30097;DHT22;16915;51.466;3.610;2024-01-06T02:15:10;6.60;99.90
30097;DHT22;16915;51.466;3.610;2024-01-06T02:17:36;6.60;99.90
30097;DHT22;16915;51.466;3.610;2024-01-06T02:20:01;6.60;99.90
30097;DHT22;16915;51.466;3.610;2024-01-06T02:22:27;6.60;99.90
30097;DHT22;16915;51.466;3.610;2024-01-06T02:24:53;6.60;99.90
30097;DHT22;16915;51.466;3.610;2024-01-06T02:27:19;6.60;99.90
30097;DHT22;16915;51.466;3.610;2024-01-06T02:29:44;6.50;99.90
30097;DHT22;16915;51.466;3.610;2024-01-06T02:32:10;6.60;99.90
30097;DHT22;16915;51.466;3.610;2024-01-06T02:34:35;6.60;99.90
30097;DHT22;16915;51.466;3.610;2024-01-06T02:37:03;6.60;99.90
30097;DHT22;16915;51.466;3.610;2024-01-06T02:39:29;6.60;99.90
30097;DHT22;16915;51.466;3.610;2024-01-06T02:41:54;6.60;99.90
30097;DHT22;16915;51.466;3.610;2024-01-06T02:44:20;6.60;99.90
30097;DHT22;16915;51.466;3.610;2024-01-06T02:46:45;6.60;99.90
30097;DHT22;16915;51.466;3.610;2024-01-06T02:49:11;6.50;99.90
30097;DHT22;16915;51.466;3.610;2024-01-06T02:51:36;6.60;99.90
30097;DHT22;16915;51.466;3.610;2024-01-06T02:54:02;6.50;99.90
30097;DHT22;16915;51.466;3.610;2024-01-06T02:56:28;6.60;99.90
30097;DHT22;16915;51.466;3.610;2024-01-06T02:58:53;6.60;99.90
30097;DHT22;16915;51.466;3.610;2024-01-06T03:01:19;6.60;99.90
30097;DHT22;16915;51.466;3.610;2024-01-06T03:03:44;6.50;99.90
30097;DHT22;16915;51.466;3.610;2024-01-06T03:06:10;6.50;99.90
30097;DHT22;16915;51.466;3.610;2024-01-06T03:08:35;6.60;99.90
30097;DHT22;16915;51.466;3.610;2024-01-06T03:11:02;6.50;99.90
30097;DHT22;16915;51.466;3.610;2024-01-06T03:13:29;6.50;99.90
30097;DHT22;16915;51.466;3.610;2024-01-06T03:15:54;6.50;99.90
30097;DHT22;16915;51.466;3.610;2024-01-06T03:18:20;6.50;99.90
30097;DHT22;16915;51.466;3.610;2024-01-06T03:20:45;6.50;99.90
30097;DHT22;16915;51.466;3.610;2024-01-06T03:23:11;6.50;99.90
30097;DHT22;16915;51.466;3.610;2024-01-06T03:25:36;6.50;99.90
30097;DHT22;16915;51.466;3.610;2024-01-06T03:28:02;6.50;99.90
30097;DHT22;16915;51.466;3.610;2024-01-06T03:30:28;6.40;99.90
30097;DHT22;16915;51.466;3.610;2024-01-06T03:32:53;6.40;99.90
30097;DHT22;16915;51.466;3.610;2024-01-06T03:35:19;6.50;99.90
30097;DHT22;16915;51.466;3.610;2024-01-06T03:37:45;6.50;99.90
30097;DHT22;16915;51.466;3.610;2024-01-06T03:40:11;6.50;99.90
30097;DHT22;16915;51.466;3.610;2024-01-06T03:42:36;6.50;99.90
30097;DHT22;16915;51.466;3.610;2024-01-06T03:45:02;6.50;99.90
30097;DHT22;16915;51.466;3.610;2024-01-06T03:47:29;6.50;99.90
30097;DHT22;16915;51.466;3.610;2024-01-06T03:49:54;6.50;99.90
30097;DHT22;16915;51.466;3.610;2024-01-06T03:52:20;6.50;99.90
30097;DHT22;16915;51.466;3.610;2024-01-06T03:54:45;6.50;99.90
30097;DHT22;16915;51.466;3.610;2024-01-06T03:57:11;6.50;99.90
30097;DHT22;16915;51.466;3.610;2024-01-06T03:59:36;6.50;99.90
30097;DHT22;16915;51.466;3.610;2024-01-06T04:02:02;6.50;99.90
30097;DHT22;16915;51.466;3.610;2024-01-06T04:04:27;6.50;99.90
30097;DHT22;16915;51.466;3.610;2024-01-06T04:06:53;6.50;99.90
30097;DHT22;16915;51.466;3.610;2024-01-06T04:09:18;6.40;99.90
30097;DHT22;16915;51.466;3.610;2024-01-06T04:11:44;6.40;99.90
30097;DHT22;16915;51.466;3.610;2024-01-06T04:14:09;6.40;99.90
30097;DHT22;16915;51.466;3.610;2024-01-06T04:16:35;6.40;99.90
30097;DHT22;16915;51.466;3.610;2024-01-06T04:19:01;6.40;99.90
30097;DHT22;16915;51.466;3.610;2024-01-06T04:21:26;6.30;99.90
30097;DHT22;16915;51.466;3.610;2024-01-06T04:23:52;6.30;99.90
30097;DHT22;16915;51.466;3.610;2024-01-06T04:26:17;6.20;99.90
30097;DHT22;16915;51.466;3.610;2024-01-06T04:28:43;6.20;99.90
30097;DHT22;16915;51.466;3.610;2024-01-06T04:31:08;6.20;99.90
30097;DHT22;16915;51.466;3.610;2024-01-06T04:33:34;6.20;99.90
30097;DHT22;16915;51.466;3.610;2024-01-06T04:36:00;6.20;99.90
30097;DHT22;16915;51.466;3.610;2024-01-06T04:38:27;6.20;99.90
30097;DHT22;16915;51.466;3.610;2024-01-06T04:40:52;6.20;99.90
30097;DHT22;16915;51.466;3.610;2024-01-06T04:43:18;6.20;99.90
30097;DHT22;16915;51.466;3.610;2024-01-06T04:45:43;6.20;99.90
30097;DHT22;16915;51.466;3.610;2024-01-06T04:48:09;6.20;99.90
30097;DHT22;16915;51.466;3.610;2024-01-06T04:50:35;6.20;99.90
30097;DHT22;16915;51.466;3.610;2024-01-06T04:53:00;6.20;99.90
30097;DHT22;16915;51.466;3.610;2024-01-06T04:55:26;6.20;99.90
30097;DHT22;16915;51.466;3.610;2024-01-06T04:57:51;6.20;99.90
30097;DHT22;16915;51.466;3.610;2024-01-06T05:00:17;6.20;99.90
30097;DHT22;16915;51.466;3.610;2024-01-06T05:02:42;6.20;99.90
30097;DHT22;16915;51.466;3.610;2024-01-06T05:05:08;6.20;99.90
30097;DHT22;16915;51.466;3.610;2024-01-06T05:07:34;6.20;99.90
30097;DHT22;16915;51.466;3.610;2024-01-06T05:09:59;6.20;99.90
30097;DHT22;16915;51.466;3.610;2024-01-06T05:12:25;6.20;99.90
30097;DHT22;16915;51.466;3.610;2024-01-06T05:14:50;6.20;99.90
30097;DHT22;16915;51.466;3.610;2024-01-06T05:17:16;6.20;99.90
30097;DHT22;16915;51.466;3.610;2024-01-06T05:19:41;6.20;99.90
30097;DHT22;16915;51.466;3.610;2024-01-06T05:22:07;6.20;99.90
30097;DHT22;16915;51.466;3.610;2024-01-06T05:24:33;6.20;99.90
30097;DHT22;16915;51.466;3.610;2024-01-06T05:26:58;6.10;99.90
30097;DHT22;16915;51.466;3.610;2024-01-06T05:29:24;6.10;99.90
30097;DHT22;16915;51.466;3.610;2024-01-06T05:31:51;6.10;99.90
30097;DHT22;16915;51.466;3.610;2024-01-06T05:34:17;6.10;99.90
30097;DHT22;16915;51.466;3.610;2024-01-06T05:36:42;6.10;99.90
30097;DHT22;16915;51.466;3.610;2024-01-06T05:39:08;6.10;99.90
30097;DHT22;16915;51.466;3.610;2024-01-06T05:41:40;6.10;99.90
30097;DHT22;16915;51.466;3.610;2024-01-06T05:44:06;6.10;99.90
30097;DHT22;16915;51.466;3.610;2024-01-06T05:46:33;6.10;99.90
30097;DHT22;16915;51.466;3.610;2024-01-06T05:48:58;6.10;99.90
30097;DHT22;16915;51.466;3.610;2024-01-06T05:51:25;6.10;99.90
30097;DHT22;16915;51.466;3.610;2024-01-06T05:53:50;6.10;99.90
30097;DHT22;16915;51.466;3.610;2024-01-06T05:56:26;6.10;99.90
30097;DHT22;16915;51.466;3.610;2024-01-06T05:58:52;6.10;99.90
30097;DHT22;16915;51.466;3.610;2024-01-06T06:01:18;6.10;99.90
30097;DHT22;16915;51.466;3.610;2024-01-06T06:03:44;6.10;99.90
30097;DHT22;16915;51.466;3.610;2024-01-06T06:06:10;6.10;99.90
30097;DHT22;16915;51.466;3.610;2024-01-06T06:08:36;6.10;99.90
30097;DHT22;16915;51.466;3.610;2024-01-06T06:11:01;6.10;99.90
30097;DHT22;16915;51.466;3.610;2024-01-06T06:13:28;6.10;99.90
30097;DHT22;16915;51.466;3.610;2024-01-06T06:15:53;6.00;99.90
30097;DHT22;16915;51.466;3.610;2024-01-06T06:18:20;6.10;99.90
30097;DHT22;16915;51.466;3.610;2024-01-06T06:20:46;6.00;99.90
30097;DHT22;16915;51.466;3.610;2024-01-06T06:23:12;6.00;99.90
30097;DHT22;16915;51.466;3.610;2024-01-06T06:25:38;6.00;99.90
30097;DHT22;16915;51.466;3.610;2024-01-06T06:28:04;6.00;99.90
30097;DHT22;16915;51.466;3.610;2024-01-06T06:30:30;6.00;99.90
30097;DHT22;16915;51.466;3.610;2024-01-06T06:32:56;6.00;99.90
30097;DHT22;16915;51.466;3.610;2024-01-06T06:35:23;6.00;99.90
30097;DHT22;16915;51.466;3.610;2024-01-06T06:37:49;6.00;99.90
30097;DHT22;16915;51.466;3.610;2024-01-06T06:40:15;6.00;99.90
30097;DHT22;16915;51.466;3.610;2024-01-06T06:42:40;6.00;99.90
30097;DHT22;16915;51.466;3.610;2024-01-06T06:45:06;6.00;99.90
30097;DHT22;16915;51.466;3.610;2024-01-06T06:47:33;6.00;99.90
30097;DHT22;16915;51.466;3.610;2024-01-06T06:49:58;6.00;99.90
30097;DHT22;16915;51.466;3.610;2024-01-06T06:52:24;6.00;99.90
30097;DHT22;16915;51.466;3.610;2024-01-06T06:54:49;6.00;99.90
30097;DHT22;16915;51.466;3.610;2024-01-06T06:57:17;6.00;99.90
30097;DHT22;16915;51.466;3.610;2024-01-06T06:59:42;6.00;99.90
30097;DHT22;16915;51.466;3.610;2024-01-06T07:02:08;5.90;99.90
30097;DHT22;16915;51.466;3.610;2024-01-06T07:04:34;6.00;99.90
30097;DHT22;16915;51.466;3.610;2024-01-06T07:07:00;5.90;99.90
30097;DHT22;16915;51.466;3.610;2024-01-06T07:09:25;5.90;99.90
30097;DHT22;16915;51.466;3.610;2024-01-06T07:11:51;5.90;99.90
30097;DHT22;16915;51.466;3.610;2024-01-06T07:14:17;5.90;99.90
30097;DHT22;16915;51.466;3.610;2024-01-06T07:16:42;5.90;99.90
30097;DHT22;16915;51.466;3.610;2024-01-06T07:19:08;5.90;99.90
30097;DHT22;16915;51.466;3.610;2024-01-06T07:21:33;5.90;99.90
30097;DHT22;16915;51.466;3.610;2024-01-06T07:24:00;5.90;99.90
30097;DHT22;16915;51.466;3.610;2024-01-06T07:26:26;5.90;99.90
30097;DHT22;16915;51.466;3.610;2024-01-06T07:28:52;5.80;99.90
30097;DHT22;16915;51.466;3.610;2024-01-06T07:31:18;5.80;99.90
30097;DHT22;16915;51.466;3.610;2024-01-06T07:33:43;5.80;99.90
30097;DHT22;16915;51.466;3.610;2024-01-06T07:36:09;5.80;99.90
30097;DHT22;16915;51.466;3.610;2024-01-06T07:38:34;5.80;99.90
30097;DHT22;16915;51.466;3.610;2024-01-06T07:41:00;5.80;99.90
30097;DHT22;16915;51.466;3.610;2024-01-06T07:43:26;5.80;99.90
30097;DHT22;16915;51.466;3.610;2024-01-06T07:45:51;5.80;99.90
30097;DHT22;16915;51.466;3.610;2024-01-06T07:48:17;5.80;99.90
30097;DHT22;16915;51.466;3.610;2024-01-06T07:50:42;5.80;99.90
30097;DHT22;16915;51.466;3.610;2024-01-06T07:53:08;5.80;99.90
30097;DHT22;16915;51.466;3.610;2024-01-06T07:55:34;5.80;99.90
30097;DHT22;16915;51.466;3.610;2024-01-06T07:58:00;5.80;99.90
30097;DHT22;16915;51.466;3.610;2024-01-06T08:00:25;5.80;99.90
30097;DHT22;16915;51.466;3.610;2024-01-06T08:02:51;5.80;99.90
30097;DHT22;16915;51.466;3.610;2024-01-06T08:05:16;5.80;99.90
30097;DHT22;16915;51.466;3.610;2024-01-06T08:07:42;5.70;99.90
30097;DHT22;16915;51.466;3.610;2024-01-06T08:10:08;5.70;99.90
30097;DHT22;16915;51.466;3.610;2024-01-06T08:12:34;5.70;99.90
30097;DHT22;16915;51.466;3.610;2024-01-06T08:15:00;5.60;99.90
30097;DHT22;16915;51.466;3.610;2024-01-06T08:17:25;5.60;99.90
30097;DHT22;16915;51.466;3.610;2024-01-06T08:19:51;5.60;99.90
30097;DHT22;16915;51.466;3.610;2024-01-06T08:22:16;5.60;99.90
30097;DHT22;16915;51.466;3.610;2024-01-06T08:24:42;5.60;99.90
30097;DHT22;16915;51.466;3.610;2024-01-06T08:27:07;5.60;99.90
30097;DHT22;16915;51.466;3.610;2024-01-06T08:29:33;5.60;99.90
30097;DHT22;16915;51.466;3.610;2024-01-06T08:31:59;5.60;99.90
30097;DHT22;16915;51.466;3.610;2024-01-06T08:34:24;5.60;99.90
30097;DHT22;16915;51.466;3.610;2024-01-06T08:36:50;5.60;99.90
30097;DHT22;16915;51.466;3.610;2024-01-06T08:39:16;5.60;99.90
30097;DHT22;16915;51.466;3.610;2024-01-06T08:41:42;5.60;99.90
30097;DHT22;16915;51.466;3.610;2024-01-06T08:44:07;5.60;99.90
30097;DHT22;16915;51.466;3.610;2024-01-06T08:46:33;5.50;99.90
30097;DHT22;16915;51.466;3.610;2024-01-06T08:48:58;5.50;99.90
30097;DHT22;16915;51.466;3.610;2024-01-06T08:51:25;5.50;99.90
30097;DHT22;16915;51.466;3.610;2024-01-06T08:53:51;5.50;99.90
30097;DHT22;16915;51.466;3.610;2024-01-06T08:56:17;5.50;99.90
30097;DHT22;16915;51.466;3.610;2024-01-06T08:58:43;5.50;99.90
30097;DHT22;16915;51.466;3.610;2024-01-06T09:01:09;5.50;99.90
30097;DHT22;16915;51.466;3.610;2024-01-06T09:03:34;5.50;99.90
30097;DHT22;16915;51.466;3.610;2024-01-06T09:06:00;5.50;99.90
30097;DHT22;16915;51.466;3.610;2024-01-06T09:08:26;5.50;99.90
30097;DHT22;16915;51.466;3.610;2024-01-06T09:10:51;5.50;99.90
30097;DHT22;16915;51.466;3.610;2024-01-06T09:13:21;5.50;99.90
30097;DHT22;16915;51.466;3.610;2024-01-06T09:15:47;5.60;99.90
30097;DHT22;16915;51.466;3.610;2024-01-06T09:18:12;5.50;99.90
30097;DHT22;16915;51.466;3.610;2024-01-06T09:20:38;5.60;99.90
30097;DHT22;16915;51.466;3.610;2024-01-06T09:23:04;5.50;99.90
30097;DHT22;16915;51.466;3.610;2024-01-06T09:25:29;5.50;99.90
30097;DHT22;16915;51.466;3.610;2024-01-06T09:27:55;5.50;99.90
30097;DHT22;16915;51.466;3.610;2024-01-06T09:30:21;5.50;99.90
30097;DHT22;16915;51.466;3.610;2024-01-06T09:32:46;5.40;99.90
30097;DHT22;16915;51.466;3.610;2024-01-06T09:35:12;5.50;99.90
30097;DHT22;16915;51.466;3.610;2024-01-06T09:37:37;5.50;99.90
30097;DHT22;16915;51.466;3.610;2024-01-06T09:40:03;5.50;99.90
30097;DHT22;16915;51.466;3.610;2024-01-06T09:42:29;5.60;99.90
30097;DHT22;16915;51.466;3.610;2024-01-06T09:44:55;5.50;99.90
30097;DHT22;16915;51.466;3.610;2024-01-06T09:47:22;5.50;99.90
30097;DHT22;16915;51.466;3.610;2024-01-06T09:49:50;5.60;99.90
30097;DHT22;16915;51.466;3.610;2024-01-06T09:52:21;5.60;99.90
30097;DHT22;16915;51.466;3.610;2024-01-06T09:54:51;5.60;99.90
30097;DHT22;16915;51.466;3.610;2024-01-06T09:57:17;5.70;99.90
30097;DHT22;16915;51.466;3.610;2024-01-06T09:59:44;5.70;99.90
30097;DHT22;16915;51.466;3.610;2024-01-06T10:02:16;5.70;99.90
30097;DHT22;16915;51.466;3.610;2024-01-06T10:04:43;5.70;99.90
30097;DHT22;16915;51.466;3.610;2024-01-06T10:07:09;5.70;99.90
30097;DHT22;16915;51.466;3.610;2024-01-06T10:09:37;5.70;99.90
30097;DHT22;16915;51.466;3.610;2024-01-06T10:12:03;5.70;99.90
30097;DHT22;16915;51.466;3.610;2024-01-06T10:14:29;5.60;99.90
30097;DHT22;16915;51.466;3.610;2024-01-06T10:16:54;5.60;99.90
30097;DHT22;16915;51.466;3.610;2024-01-06T10:19:20;5.60;99.90
30097;DHT22;16915;51.466;3.610;2024-01-06T10:21:46;5.60;99.90
30097;DHT22;16915;51.466;3.610;2024-01-06T10:24:12;5.60;99.90
30097;DHT22;16915;51.466;3.610;2024-01-06T10:26:39;5.60;99.90
30097;DHT22;16915;51.466;3.610;2024-01-06T10:29:05;5.60;99.90
30097;DHT22;16915;51.466;3.610;2024-01-06T10:31:30;5.60;99.90
30097;DHT22;16915;51.466;3.610;2024-01-06T10:33:56;5.70;99.90
30097;DHT22;16915;51.466;3.610;2024-01-06T10:36:25;5.60;99.90
30097;DHT22;16915;51.466;3.610;2024-01-06T10:38:52;5.60;99.90
30097;DHT22;16915;51.466;3.610;2024-01-06T10:41:19;5.60;99.90
30097;DHT22;16915;51.466;3.610;2024-01-06T10:43:46;5.60;99.90
30097;DHT22;16915;51.466;3.610;2024-01-06T10:46:13;5.60;99.90
30097;DHT22;16915;51.466;3.610;2024-01-06T10:48:41;5.60;99.90
30097;DHT22;16915;51.466;3.610;2024-01-06T10:51:12;5.60;99.90
30097;DHT22;16915;51.466;3.610;2024-01-06T10:53:40;5.60;99.90
30097;DHT22;16915;51.466;3.610;2024-01-06T10:56:07;5.70;99.90
30097;DHT22;16915;51.466;3.610;2024-01-06T10:58:47;5.70;99.90
30097;DHT22;16915;51.466;3.610;2024-01-06T11:01:21;5.70;99.90
30097;DHT22;16915;51.466;3.610;2024-01-06T11:03:48;5.80;99.90
30097;DHT22;16915;51.466;3.610;2024-01-06T11:06:14;5.80;99.90
30097;DHT22;16915;51.466;3.610;2024-01-06T11:11:22;5.80;99.90
30097;DHT22;16915;51.466;3.610;2024-01-06T11:13:49;5.80;99.90
30097;DHT22;16915;51.466;3.610;2024-01-06T11:16:34;5.90;99.90
30097;DHT22;16915;51.466;3.610;2024-01-06T11:19:00;5.90;99.90
30097;DHT22;16915;51.466;3.610;2024-01-06T11:21:27;5.90;99.90
30097;DHT22;16915;51.466;3.610;2024-01-06T11:26:31;5.90;99.90
30097;DHT22;16915;51.466;3.610;2024-01-06T11:28:57;5.90;99.90
30097;DHT22;16915;51.466;3.610;2024-01-06T11:31:31;5.90;99.90
30097;DHT22;16915;51.466;3.610;2024-01-06T11:34:17;5.90;99.90
30097;DHT22;16915;51.466;3.610;2024-01-06T11:36:45;5.90;99.90
30097;DHT22;16915;51.466;3.610;2024-01-06T11:39:40;5.90;99.90
30097;DHT22;16915;51.466;3.610;2024-01-06T11:42:10;5.90;99.90
30097;DHT22;16915;51.466;3.610;2024-01-06T11:44:41;5.90;99.90
30097;DHT22;16915;51.466;3.610;2024-01-06T11:47:10;5.90;99.90
30097;DHT22;16915;51.466;3.610;2024-01-06T11:49:37;5.90;99.90
30097;DHT22;16915;51.466;3.610;2024-01-06T11:52:03;5.80;99.90
30097;DHT22;16915;51.466;3.610;2024-01-06T11:54:29;5.90;99.90
30097;DHT22;16915;51.466;3.610;2024-01-06T11:56:56;5.90;99.90
30097;DHT22;16915;51.466;3.610;2024-01-06T11:59:23;5.90;99.90
30097;DHT22;16915;51.466;3.610;2024-01-06T12:01:48;5.80;99.90
30097;DHT22;16915;51.466;3.610;2024-01-06T12:04:14;5.80;99.90
30097;DHT22;16915;51.466;3.610;2024-01-06T12:06:43;5.90;99.90
30097;DHT22;16915;51.466;3.610;2024-01-06T12:09:11;5.80;99.90
30097;DHT22;16915;51.466;3.610;2024-01-06T12:11:40;5.90;99.90
30097;DHT22;16915;51.466;3.610;2024-01-06T12:14:06;5.90;99.90
30097;DHT22;16915;51.466;3.610;2024-01-06T12:16:32;5.90;99.90
30097;DHT22;16915;51.466;3.610;2024-01-06T12:18:59;6.00;99.90
30097;DHT22;16915;51.466;3.610;2024-01-06T12:21:26;6.10;99.90
30097;DHT22;16915;51.466;3.610;2024-01-06T12:23:52;6.30;99.90
30097;DHT22;16915;51.466;3.610;2024-01-06T12:26:18;6.40;99.90
30097;DHT22;16915;51.466;3.610;2024-01-06T12:28:48;6.50;99.90
30097;DHT22;16915;51.466;3.610;2024-01-06T12:31:14;6.60;99.90
30097;DHT22;16915;51.466;3.610;2024-01-06T12:33:40;6.60;99.90
30097;DHT22;16915;51.466;3.610;2024-01-06T12:36:09;6.50;99.90
30097;DHT22;16915;51.466;3.610;2024-01-06T12:38:37;6.50;99.90
30097;DHT22;16915;51.466;3.610;2024-01-06T12:41:03;6.40;99.90
30097;DHT22;16915;51.466;3.610;2024-01-06T12:43:29;6.40;99.90
30097;DHT22;16915;51.466;3.610;2024-01-06T12:45:55;6.40;99.90
30097;DHT22;16915;51.466;3.610;2024-01-06T12:48:22;6.30;99.90
30097;DHT22;16915;51.466;3.610;2024-01-06T12:50:48;6.20;99.90
30097;DHT22;16915;51.466;3.610;2024-01-06T12:53:13;6.30;99.90
30097;DHT22;16915;51.466;3.610;2024-01-06T12:55:41;6.30;99.90
30097;DHT22;16915;51.466;3.610;2024-01-06T12:58:06;6.20;99.90
30097;DHT22;16915;51.466;3.610;2024-01-06T13:00:33;6.20;99.90
30097;DHT22;16915;51.466;3.610;2024-01-06T13:02:59;6.20;99.90
30097;DHT22;16915;51.466;3.610;2024-01-06T13:05:24;6.10;99.90
30097;DHT22;16915;51.466;3.610;2024-01-06T13:07:50;6.20;99.90
30097;DHT22;16915;51.466;3.610;2024-01-06T13:10:16;6.30;99.90
30097;DHT22;16915;51.466;3.610;2024-01-06T13:12:42;6.40;99.90
30097;DHT22;16915;51.466;3.610;2024-01-06T13:15:08;6.50;99.90
30097;DHT22;16915;51.466;3.610;2024-01-06T13:17:37;6.50;99.90
30097;DHT22;16915;51.466;3.610;2024-01-06T13:20:04;6.50;99.90
30097;DHT22;16915;51.466;3.610;2024-01-06T13:22:29;6.40;99.90
30097;DHT22;16915;51.466;3.610;2024-01-06T13:24:56;6.40;99.90
30097;DHT22;16915;51.466;3.610;2024-01-06T13:27:21;6.50;99.90
30097;DHT22;16915;51.466;3.610;2024-01-06T13:29:47;6.60;99.90
30097;DHT22;16915;51.466;3.610;2024-01-06T13:32:13;6.70;99.90
30097;DHT22;16915;51.466;3.610;2024-01-06T13:34:40;6.60;99.90
30097;DHT22;16915;51.466;3.610;2024-01-06T13:37:06;6.50;99.90
30097;DHT22;16915;51.466;3.610;2024-01-06T13:39:32;6.50;99.90
30097;DHT22;16915;51.466;3.610;2024-01-06T13:41:57;6.50;99.90
30097;DHT22;16915;51.466;3.610;2024-01-06T13:44:23;6.50;99.90
30097;DHT22;16915;51.466;3.610;2024-01-06T13:46:49;6.60;99.90
30097;DHT22;16915;51.466;3.610;2024-01-06T13:49:17;6.60;99.90
30097;DHT22;16915;51.466;3.610;2024-01-06T13:51:43;6.60;99.90
30097;DHT22;16915;51.466;3.610;2024-01-06T13:54:09;6.50;99.90
30097;DHT22;16915;51.466;3.610;2024-01-06T13:56:35;6.40;99.90
30097;DHT22;16915;51.466;3.610;2024-01-06T13:59:00;6.40;99.90
30097;DHT22;16915;51.466;3.610;2024-01-06T14:01:26;6.40;99.90
30097;DHT22;16915;51.466;3.610;2024-01-06T14:03:52;6.50;99.90
30097;DHT22;16915;51.466;3.610;2024-01-06T14:06:24;6.50;99.90
30097;DHT22;16915;51.466;3.610;2024-01-06T14:08:51;6.50;99.90
30097;DHT22;16915;51.466;3.610;2024-01-06T14:11:18;6.50;99.90
30097;DHT22;16915;51.466;3.610;2024-01-06T14:13:43;6.50;99.90
30097;DHT22;16915;51.466;3.610;2024-01-06T14:16:14;6.40;99.90
30097;DHT22;16915;51.466;3.610;2024-01-06T14:18:39;6.30;99.90
30097;DHT22;16915;51.466;3.610;2024-01-06T14:21:05;6.30;99.90
30097;DHT22;16915;51.466;3.610;2024-01-06T14:23:30;6.20;99.90
30097;DHT22;16915;51.466;3.610;2024-01-06T14:25:58;6.20;99.90
30097;DHT22;16915;51.466;3.610;2024-01-06T14:28:24;6.10;99.90
30097;DHT22;16915;51.466;3.610;2024-01-06T14:30:49;6.10;99.90
30097;DHT22;16915;51.466;3.610;2024-01-06T14:33:15;6.10;99.90
30097;DHT22;16915;51.466;3.610;2024-01-06T14:35:41;6.10;99.90
30097;DHT22;16915;51.466;3.610;2024-01-06T14:38:07;6.00;99.90
30097;DHT22;16915;51.466;3.610;2024-01-06T14:40:33;5.90;99.90
30097;DHT22;16915;51.466;3.610;2024-01-06T14:42:58;5.90;99.90
30097;DHT22;16915;51.466;3.610;2024-01-06T14:45:27;5.80;99.90
30097;DHT22;16915;51.466;3.610;2024-01-06T14:47:53;5.80;99.90
30097;DHT22;16915;51.466;3.610;2024-01-06T14:50:18;5.70;99.90
30097;DHT22;16915;51.466;3.610;2024-01-06T14:52:44;5.70;99.90
30097;DHT22;16915;51.466;3.610;2024-01-06T14:55:09;5.70;99.90
30097;DHT22;16915;51.466;3.610;2024-01-06T14:57:35;5.60;99.90
30097;DHT22;16915;51.466;3.610;2024-01-06T15:00:01;5.60;99.90
30097;DHT22;16915;51.466;3.610;2024-01-06T15:02:27;5.50;99.90
30097;DHT22;16915;51.466;3.610;2024-01-06T15:04:52;5.50;99.90
30097;DHT22;16915;51.466;3.610;2024-01-06T15:07:19;5.50;99.90
30097;DHT22;16915;51.466;3.610;2024-01-06T15:09:44;5.40;99.90
30097;DHT22;16915;51.466;3.610;2024-01-06T15:12:10;5.40;99.90
30097;DHT22;16915;51.466;3.610;2024-01-06T15:14:35;5.40;99.90
30097;DHT22;16915;51.466;3.610;2024-01-06T15:17:01;5.30;99.90
30097;DHT22;16915;51.466;3.610;2024-01-06T15:19:26;5.30;99.90
30097;DHT22;16915;51.466;3.610;2024-01-06T15:21:55;5.30;99.90
30097;DHT22;16915;51.466;3.610;2024-01-06T15:24:21;5.20;99.90
30097;DHT22;16915;51.466;3.610;2024-01-06T15:26:49;5.20;99.90
30097;DHT22;16915;51.466;3.610;2024-01-06T15:29:17;5.20;99.90
30097;DHT22;16915;51.466;3.610;2024-01-06T15:31:42;5.30;99.90
30097;DHT22;16915;51.466;3.610;2024-01-06T15:34:08;5.20;99.90
30097;DHT22;16915;51.466;3.610;2024-01-06T15:36:33;5.10;99.90
30097;DHT22;16915;51.466;3.610;2024-01-06T15:38:59;5.00;99.90
30097;DHT22;16915;51.466;3.610;2024-01-06T15:41:24;5.00;99.90
30097;DHT22;16915;51.466;3.610;2024-01-06T15:43:50;5.00;99.90